createdAt,value
2022-10-10T00:01:26.530Z,6.18
2022-10-10T00:03:54.041Z,14.93
2022-10-10T00:06:21.504Z,19.35
2022-10-10T00:08:48.765Z,42.10
2022-10-10T00:11:17.816Z,22.85
2022-10-10T00:13:44.796Z,62.63
2022-10-10T00:16:12.377Z,27.83
2022-10-10T00:18:40.069Z,20.88
2022-10-10T00:21:07.577Z,106.35
2022-10-10T00:23:34.678Z,145.48
2022-10-10T00:26:04.476Z,47.45
2022-10-10T00:28:34.136Z,16.65
2022-10-10T00:31:00.880Z,18.52
2022-10-10T00:33:27.581Z,8.30
2022-10-10T00:35:54.297Z,64.10
2022-10-10T00:38:20.996Z,57.38
2022-10-10T00:40:54.356Z,7.35
2022-10-10T00:43:24.101Z,3.75
2022-10-10T00:45:50.984Z,14.13
2022-10-10T00:48:27.965Z,28.67
2022-10-10T00:50:59.282Z,37.47
2022-10-10T00:53:34.568Z,3.30
2022-10-10T00:56:02.371Z,5.88
2022-10-10T00:58:29.568Z,9.55
2022-10-10T01:00:57.006Z,4.55
2022-10-10T01:03:23.943Z,3.22
2022-10-10T01:05:51.545Z,3.05
2022-10-10T01:08:20.830Z,2.75
2022-10-10T01:11:18.201Z,2.90
2022-10-10T01:13:54.157Z,4.13
2022-10-10T01:16:31.208Z,3.58
2022-10-10T01:19:23.692Z,3.00
2022-10-10T01:22:16.382Z,2.72
2022-10-10T01:25:02.731Z,3.05
2022-10-10T01:27:43.820Z,2.58
2022-10-10T01:30:16.346Z,2.67
2022-10-10T01:32:57.137Z,2.75
2022-10-10T01:36:04.337Z,2.55
2022-10-10T01:38:35.666Z,2.00
2022-10-10T01:41:20.172Z,2.10
2022-10-10T01:43:47.114Z,1.75
2022-10-10T01:46:17.016Z,2.63
2022-10-10T01:48:46.841Z,1.95
2022-10-10T01:51:25.423Z,2.22
2022-10-10T01:54:18.543Z,3.22
2022-10-10T01:56:52.598Z,1.70
2022-10-10T01:59:57.656Z,1.50
2022-10-10T02:03:12.490Z,1.65
2022-10-10T02:06:03.975Z,1.30
2022-10-10T02:08:42.095Z,1.15
2022-10-10T02:11:10.635Z,3.70
2022-10-10T02:14:00.756Z,1.48
2022-10-10T02:16:35.066Z,1.30
2022-10-10T02:19:02.784Z,1.40
2022-10-10T02:21:30.216Z,1.77
2022-10-10T02:24:01.508Z,1.50
2022-10-10T02:26:31.048Z,1.30
2022-10-10T02:28:59.826Z,2.38
2022-10-10T02:32:00.024Z,4.57
2022-10-10T02:34:32.905Z,1.77
2022-10-10T02:37:03.717Z,1.55
2022-10-10T02:39:35.937Z,2.22
2022-10-10T02:42:05.751Z,1.70
2022-10-10T02:44:33.480Z,1.70
2022-10-10T02:47:00.273Z,1.15
2022-10-10T02:49:30.411Z,1.50
2022-10-10T02:51:57.589Z,1.05
2022-10-10T02:54:24.845Z,1.55
2022-10-10T02:56:51.692Z,1.77
2022-10-10T02:59:18.485Z,1.70
2022-10-10T03:01:45.483Z,3.42
2022-10-10T03:04:12.573Z,1.40
2022-10-10T03:06:39.768Z,1.30
2022-10-10T03:09:06.463Z,2.55
2022-10-10T03:11:33.185Z,1.40
2022-10-10T03:13:59.853Z,1.10
2022-10-10T03:16:26.636Z,4.90
2022-10-10T03:18:53.319Z,1.50
2022-10-10T03:21:19.990Z,1.40
2022-10-10T03:23:46.684Z,1.52
2022-10-10T03:26:13.402Z,1.60
2022-10-10T03:28:40.123Z,1.40
2022-10-10T03:31:06.832Z,1.40
2022-10-10T03:33:35.068Z,2.33
2022-10-10T03:36:02.654Z,1.40
2022-10-10T03:38:29.345Z,1.50
2022-10-10T03:40:56.017Z,1.88
2022-10-10T03:43:22.714Z,2.15
2022-10-10T03:45:49.625Z,1.30
2022-10-10T03:48:16.694Z,2.17
2022-10-10T03:50:43.353Z,2.92
2022-10-10T03:53:10.437Z,1.50
2022-10-10T03:55:40.601Z,1.30
2022-10-10T03:58:07.930Z,1.35
2022-10-10T04:00:35.185Z,1.70
2022-10-10T04:03:06.157Z,1.75
2022-10-10T04:05:34.854Z,2.00
2022-10-10T04:08:01.635Z,2.15
2022-10-10T04:10:28.334Z,1.40
2022-10-10T04:12:55.302Z,1.63
2022-10-10T04:15:21.970Z,1.42
2022-10-10T04:17:48.650Z,1.73
2022-10-10T04:20:15.430Z,1.98
2022-10-10T04:22:42.715Z,4.63
2022-10-10T04:25:09.995Z,1.92
2022-10-10T04:27:36.669Z,1.88
2022-10-10T04:30:04.940Z,1.60
2022-10-10T04:32:31.733Z,1.40
2022-10-10T04:34:58.705Z,4.68
2022-10-10T04:37:25.371Z,2.75
2022-10-10T04:39:52.055Z,2.10
2022-10-10T04:42:18.752Z,2.15
2022-10-10T04:44:45.444Z,1.70
2022-10-10T04:47:13.155Z,2.63
2022-10-10T04:49:41.943Z,2.05
2022-10-10T04:52:09.850Z,1.50
2022-10-10T04:54:36.890Z,2.17
2022-10-10T04:57:03.879Z,1.50
2022-10-10T04:59:30.762Z,2.25
2022-10-10T05:02:01.500Z,3.55
2022-10-10T05:04:28.785Z,1.98
2022-10-10T05:06:55.496Z,3.80
2022-10-10T05:09:22.212Z,2.45
2022-10-10T05:11:48.908Z,5.68
2022-10-10T05:14:15.689Z,1.77
2022-10-10T05:16:42.375Z,21.08
2022-10-10T05:19:09.097Z,12.45
2022-10-10T05:21:35.780Z,4.32
2022-10-10T05:24:02.855Z,3.78
2022-10-10T05:26:29.508Z,3.17
2022-10-10T05:28:56.332Z,3.08
2022-10-10T05:31:23.045Z,4.75
2022-10-10T05:33:49.730Z,4.78
2022-10-10T05:36:16.725Z,3.22
2022-10-10T05:38:43.546Z,3.38
2022-10-10T05:41:10.330Z,4.38
2022-10-10T05:43:37.078Z,5.80
2022-10-10T05:46:03.820Z,6.30
2022-10-10T05:48:31.050Z,5.13
2022-10-10T05:50:59.702Z,10.45
2022-10-10T05:53:27.606Z,2.30
2022-10-10T05:55:54.441Z,4.10
2022-10-10T05:58:21.127Z,5.78
2022-10-10T06:00:48.556Z,7.05
2022-10-10T06:03:17.176Z,2.10
2022-10-10T06:05:46.025Z,2.63
2022-10-10T06:08:12.821Z,6.00
2022-10-10T06:10:45.573Z,1.85
2022-10-10T06:15:40.181Z,2.10
2022-10-10T06:18:07.417Z,5.40
2022-10-10T06:20:35.871Z,4.15
2022-10-10T06:23:04.702Z,3.83
2022-10-10T06:25:40.602Z,6.85
2022-10-10T06:28:08.532Z,6.25
2022-10-10T06:30:40.050Z,5.30
2022-10-10T06:33:07.533Z,6.60
2022-10-10T06:35:34.487Z,6.45
2022-10-10T06:38:01.158Z,8.00
2022-10-10T06:40:27.906Z,3.65
2022-10-10T06:42:54.844Z,6.70
2022-10-10T06:45:21.588Z,10.13
2022-10-10T06:47:48.247Z,8.63
2022-10-10T06:50:14.990Z,13.63
2022-10-10T06:52:41.669Z,11.90
2022-10-10T06:55:09.055Z,10.30
2022-10-10T06:57:35.824Z,9.48
2022-10-10T07:00:02.676Z,6.85
2022-10-10T07:02:29.373Z,6.43
2022-10-10T07:04:56.053Z,5.68
2022-10-10T07:07:22.705Z,6.43
2022-10-10T07:09:49.378Z,4.72
2022-10-10T07:12:16.353Z,5.85
2022-10-10T07:14:43.039Z,4.28
2022-10-10T07:17:09.718Z,5.60
2022-10-10T07:19:37.777Z,8.13
2022-10-10T07:22:04.949Z,5.20
2022-10-10T07:24:31.744Z,6.13
2022-10-10T07:27:04.894Z,6.40
2022-10-10T07:29:33.461Z,5.45
2022-10-10T07:32:00.209Z,4.50
2022-10-10T07:34:27.075Z,7.05
2022-10-10T07:36:53.728Z,4.60
2022-10-10T07:39:21.776Z,6.28
2022-10-10T07:41:49.544Z,5.53
2022-10-10T07:44:16.710Z,7.88
2022-10-10T07:46:43.648Z,5.82
2022-10-10T07:49:10.754Z,8.48
2022-10-10T07:51:37.932Z,7.15
2022-10-10T07:54:05.086Z,8.02
2022-10-10T07:56:31.866Z,9.50
2022-10-10T07:58:59.100Z,5.93
2022-10-10T08:01:25.843Z,7.22
2022-10-10T08:03:52.535Z,4.28
2022-10-10T08:06:19.204Z,5.22
2022-10-10T08:08:51.185Z,4.95
2022-10-10T08:13:45.852Z,4.40
2022-10-10T08:16:13.083Z,3.83
2022-10-10T08:18:39.748Z,4.95
2022-10-10T08:21:08.931Z,4.65
2022-10-10T08:23:36.008Z,5.80
2022-10-10T08:26:05.158Z,5.60
2022-10-10T08:28:31.997Z,6.63
2022-10-10T08:31:01.947Z,4.15
2022-10-10T08:33:30.950Z,1.95
2022-10-10T08:35:57.658Z,1.52
2022-10-10T08:38:24.345Z,3.33
2022-10-10T08:41:06.329Z,6.25
2022-10-10T08:43:40.816Z,3.70
2022-10-10T08:46:18.219Z,6.70
2022-10-10T08:48:47.749Z,6.22
2022-10-10T08:51:23.983Z,3.72
2022-10-10T08:53:55.370Z,2.55
2022-10-10T08:56:29.557Z,5.32
2022-10-10T08:59:02.541Z,6.55
2022-10-10T09:01:35.223Z,5.13
2022-10-10T09:04:05.066Z,5.38
2022-10-10T09:07:04.170Z,6.55
2022-10-10T09:09:52.827Z,9.23
2022-10-10T09:12:29.488Z,4.30
2022-10-10T09:15:16.972Z,6.00
2022-10-10T09:18:33.364Z,8.52
2022-10-10T09:21:18.749Z,10.65
2022-10-10T09:23:53.154Z,9.07
2022-10-10T09:26:24.854Z,6.82
2022-10-10T09:29:00.298Z,6.47
2022-10-10T09:31:34.144Z,6.35
2022-10-10T09:34:07.126Z,5.20
2022-10-10T09:36:37.134Z,6.40
2022-10-10T09:39:19.198Z,6.85
2022-10-10T09:41:57.902Z,7.25
2022-10-10T09:44:24.840Z,6.25
2022-10-10T09:46:52.127Z,5.00
2022-10-10T09:49:20.318Z,4.70
2022-10-10T09:51:48.545Z,5.55
2022-10-10T09:54:17.773Z,5.43
2022-10-10T09:56:48.014Z,5.80
2022-10-10T09:59:45.027Z,5.28
2022-10-10T10:02:20.407Z,5.65
2022-10-10T10:04:48.532Z,3.40
2022-10-10T10:07:32.856Z,4.38
2022-10-10T10:10:02.105Z,3.28
2022-10-10T10:12:37.548Z,4.20
2022-10-10T10:15:16.044Z,3.85
2022-10-10T10:17:42.741Z,2.92
2022-10-10T10:20:35.686Z,8.52
2022-10-10T10:25:31.981Z,4.03
2022-10-10T10:28:10.906Z,5.93
2022-10-10T10:30:45.144Z,2.85
2022-10-10T10:33:20.302Z,4.00
2022-10-10T10:36:10.678Z,6.90
2022-10-10T10:39:09.388Z,3.97
2022-10-10T10:41:51.388Z,1.92
2022-10-10T10:44:27.033Z,5.45
2022-10-10T10:47:10.890Z,5.65
2022-10-10T10:49:59.256Z,6.15
2022-10-10T10:52:32.586Z,2.42
2022-10-10T10:55:08.510Z,2.75
2022-10-10T10:58:05.146Z,2.83
2022-10-10T11:01:38.407Z,4.57
2022-10-10T11:05:24.331Z,2.00
2022-10-10T11:07:23.658Z,4.43
2022-10-10T11:10:24.255Z,3.55
2022-10-10T11:13:19.088Z,2.67
2022-10-10T11:16:24.366Z,1.95
2022-10-10T11:18:52.298Z,2.95
2022-10-10T11:21:26.751Z,5.07
2022-10-10T11:24:10.059Z,8.07
2022-10-10T11:26:44.060Z,3.55
2022-10-10T11:29:22.853Z,3.17
2022-10-10T11:32:03.067Z,3.08
2022-10-10T11:34:42.449Z,3.47
2022-10-10T11:37:17.883Z,2.08
2022-10-10T11:39:54.116Z,2.60
2022-10-10T11:42:33.419Z,3.60
2022-10-10T11:45:04.792Z,3.45
2022-10-10T11:47:49.751Z,3.35
2022-10-10T11:50:32.870Z,4.07
2022-10-10T11:53:41.268Z,5.38
2022-10-10T11:56:14.357Z,5.15
2022-10-10T11:58:45.853Z,5.07
2022-10-10T12:01:22.509Z,2.70
2022-10-10T12:03:51.594Z,2.50
2022-10-10T12:06:45.406Z,5.80
2022-10-10T12:09:27.576Z,5.57
2022-10-10T12:11:58.281Z,4.00
2022-10-10T12:14:27.878Z,2.55
2022-10-10T12:16:56.177Z,3.92
2022-10-10T12:19:26.004Z,6.03
2022-10-10T12:22:05.637Z,5.55
2022-10-10T12:24:42.516Z,2.15
2022-10-10T12:27:25.450Z,1.42
2022-10-10T12:29:55.138Z,6.53
2022-10-10T12:32:40.458Z,3.25
2022-10-10T12:35:41.944Z,1.63
2022-10-10T12:38:13.809Z,3.83
2022-10-10T12:41:05.375Z,4.03
2022-10-10T12:43:52.420Z,1.52
2022-10-10T12:46:26.358Z,4.00
2022-10-10T12:49:19.088Z,3.45
2022-10-10T12:52:02.185Z,4.72
2022-10-10T12:54:37.171Z,3.67
2022-10-10T12:57:19.683Z,4.50
2022-10-10T12:59:46.712Z,3.03
2022-10-10T13:02:23.565Z,3.25
2022-10-10T13:04:52.500Z,2.08
2022-10-10T13:07:21.730Z,3.88
2022-10-10T13:09:51.332Z,3.08
2022-10-10T13:12:32.395Z,3.45
2022-10-10T13:14:59.097Z,3.08
2022-10-10T13:17:46.029Z,3.30
2022-10-10T13:20:45.353Z,3.40
2022-10-10T13:23:14.303Z,3.10
2022-10-10T13:25:45.172Z,4.93
2022-10-10T13:28:19.912Z,4.55
2022-10-10T13:30:48.879Z,2.08
2022-10-10T13:33:21.626Z,5.78
2022-10-10T13:35:50.577Z,2.65
2022-10-10T13:38:19.904Z,1.30
2022-10-10T13:40:46.872Z,2.65
2022-10-10T13:43:15.808Z,2.20
2022-10-10T13:45:46.898Z,2.20
2022-10-10T13:48:28.116Z,3.67
2022-10-10T13:51:02.644Z,3.20
2022-10-10T13:53:30.344Z,2.40
2022-10-10T13:56:09.076Z,2.70
2022-10-10T13:59:00.677Z,2.88
2022-10-10T14:01:39.112Z,9.82
2022-10-10T14:04:08.148Z,2.67
2022-10-10T14:06:35.612Z,3.47
2022-10-10T14:09:25.368Z,3.53
2022-10-10T14:11:53.754Z,4.47
2022-10-10T14:14:26.599Z,4.00
2022-10-10T14:17:04.974Z,3.58
2022-10-10T14:19:33.048Z,4.57
2022-10-10T14:21:59.770Z,3.45
2022-10-10T14:24:26.454Z,2.70
2022-10-10T14:26:53.313Z,2.20
2022-10-10T14:29:21.009Z,4.05
2022-10-10T14:31:47.846Z,3.90
2022-10-10T14:34:15.409Z,4.72
2022-10-10T14:36:47.561Z,3.83
2022-10-10T14:39:16.915Z,8.50
2022-10-10T14:41:44.312Z,4.40
2022-10-10T14:44:11.141Z,4.95
2022-10-10T14:46:38.793Z,6.22
2022-10-10T14:49:08.699Z,5.82
2022-10-10T14:51:39.020Z,3.05
2022-10-10T14:54:11.961Z,6.13
2022-10-10T14:57:06.824Z,6.05
2022-10-10T14:59:46.286Z,10.60
2022-10-10T15:02:20.872Z,8.80
2022-10-10T15:04:47.968Z,9.32
2022-10-10T15:07:15.876Z,8.43
2022-10-10T15:10:10.886Z,9.50
2022-10-10T15:12:31.772Z,9.43
2022-10-10T15:14:58.454Z,7.30
2022-10-10T15:17:27.008Z,9.60
2022-10-10T15:19:53.775Z,4.13
2022-10-10T15:22:20.714Z,6.00
2022-10-10T15:24:47.389Z,9.77
2022-10-10T15:27:14.205Z,8.43
2022-10-10T15:29:40.940Z,3.28
2022-10-10T15:32:08.124Z,8.40
2022-10-10T15:34:35.146Z,8.57
2022-10-10T15:37:02.000Z,4.88
2022-10-10T15:39:30.719Z,6.18
2022-10-10T15:41:59.592Z,9.85
2022-10-10T15:44:30.510Z,7.18
2022-10-10T15:46:57.184Z,5.75
2022-10-10T15:49:23.982Z,9.02
2022-10-10T15:51:50.684Z,6.10
2022-10-10T15:54:17.358Z,7.85
2022-10-10T15:56:44.160Z,5.78
2022-10-10T15:59:13.265Z,11.00
2022-10-10T16:01:40.064Z,10.70
2022-10-10T16:04:06.853Z,6.60
2022-10-10T16:06:33.710Z,7.28
2022-10-10T16:09:23.428Z,5.82
2022-10-10T16:11:48.672Z,7.72
2022-10-10T16:14:15.404Z,8.27
2022-10-10T16:16:42.232Z,10.23
2022-10-10T16:19:08.907Z,19.92
2022-10-10T16:21:35.705Z,14.27
2022-10-10T16:24:02.741Z,15.60
2022-10-10T16:26:33.292Z,15.95
2022-10-10T16:29:01.421Z,9.48
2022-10-10T16:31:28.589Z,12.77
2022-10-10T16:33:57.256Z,9.25
2022-10-10T16:36:32.599Z,10.73
2022-10-10T16:38:59.906Z,11.35
2022-10-10T16:41:47.140Z,7.60
2022-10-10T16:44:14.762Z,10.00
2022-10-10T16:46:41.412Z,11.57
2022-10-10T16:49:08.101Z,7.38
2022-10-10T16:51:34.838Z,8.15
2022-10-10T16:54:02.118Z,8.63
2022-10-10T16:56:30.100Z,9.13
2022-10-10T16:58:59.228Z,8.25
2022-10-10T17:01:26.245Z,9.55
2022-10-10T17:03:53.437Z,11.27
2022-10-10T17:06:22.225Z,13.63
2022-10-10T17:08:50.808Z,14.30
2022-10-10T17:11:20.207Z,11.13
2022-10-10T17:13:48.097Z,13.60
2022-10-10T17:16:59.965Z,13.95
2022-10-10T17:19:08.289Z,14.82
2022-10-10T17:21:35.042Z,11.55
2022-10-10T17:24:01.764Z,11.43
2022-10-10T17:26:28.583Z,11.35
2022-10-10T17:28:57.647Z,12.77
2022-10-10T17:31:25.461Z,17.67
2022-10-10T17:33:54.580Z,7.53
2022-10-10T17:36:26.941Z,8.43
2022-10-10T17:38:55.913Z,6.45
2022-10-10T17:41:23.226Z,4.68
2022-10-10T17:43:50.208Z,6.55
2022-10-10T17:46:34.198Z,19.20
2022-10-10T17:49:02.920Z,19.63
2022-10-10T17:51:29.587Z,19.73
2022-10-10T17:53:59.520Z,10.43
2022-10-10T17:56:26.279Z,40.10
2022-10-10T17:58:52.941Z,22.13
2022-10-10T18:01:20.529Z,9.77
2022-10-10T18:03:48.168Z,11.90
2022-10-10T18:06:17.383Z,13.88
2022-10-10T18:08:46.527Z,11.32
2022-10-10T18:11:15.129Z,13.70
2022-10-10T18:13:41.798Z,16.92
2022-10-10T18:16:10.968Z,11.55
2022-10-10T18:18:38.837Z,28.15
2022-10-10T18:21:08.156Z,13.35
2022-10-10T18:23:35.545Z,12.25
2022-10-10T18:26:06.871Z,14.60
2022-10-10T18:28:36.176Z,17.60
2022-10-10T18:31:12.256Z,14.13
2022-10-10T18:33:40.664Z,8.18
2022-10-10T18:36:08.588Z,11.02
2022-10-10T18:38:35.550Z,7.22
2022-10-10T18:41:09.594Z,9.13
2022-10-10T18:43:36.621Z,5.40
2022-10-10T18:46:05.066Z,17.17
2022-10-10T18:48:32.205Z,17.33
2022-10-10T18:51:07.088Z,13.35
2022-10-10T18:53:38.935Z,12.93
2022-10-10T18:56:06.663Z,15.87
2022-10-10T18:58:35.808Z,9.95
2022-10-10T19:01:05.803Z,10.30
2022-10-10T19:03:32.975Z,8.27
2022-10-10T19:06:01.809Z,20.60
2022-10-10T19:08:28.720Z,17.05
2022-10-10T19:10:55.368Z,12.05
2022-10-10T19:13:22.054Z,11.02
2022-10-10T19:15:51.435Z,10.05
2022-10-10T19:18:22.412Z,11.02
2022-10-10T19:20:49.316Z,8.48
2022-10-10T19:23:16.068Z,11.02
2022-10-10T19:25:46.032Z,7.85
2022-10-10T19:28:12.939Z,7.53
2022-10-10T19:30:42.092Z,6.72
2022-10-10T19:33:10.110Z,9.07
2022-10-10T19:35:39.391Z,6.35
2022-10-10T19:38:06.967Z,6.78
2022-10-10T19:40:34.387Z,8.95
2022-10-10T19:43:01.797Z,5.30
2022-10-10T19:45:28.513Z,5.43
2022-10-10T19:47:55.327Z,6.70
2022-10-10T19:50:22.031Z,7.47
2022-10-10T19:52:48.784Z,10.35
2022-10-10T19:55:18.302Z,5.28
2022-10-10T19:57:45.001Z,7.20
2022-10-10T20:00:12.342Z,10.70
2022-10-10T20:02:39.089Z,5.85
2022-10-10T20:05:06.300Z,4.60
2022-10-10T20:07:32.988Z,3.25
2022-10-10T20:09:59.682Z,5.28
2022-10-10T20:12:26.410Z,7.53
2022-10-10T20:14:53.276Z,2.90
2022-10-10T20:17:20.118Z,7.32
2022-10-10T20:19:47.199Z,4.57
2022-10-10T20:22:14.219Z,5.28
2022-10-10T20:24:40.910Z,3.97
2022-10-10T20:27:07.618Z,4.70
2022-10-10T20:29:34.333Z,5.82
2022-10-10T20:32:01.112Z,7.97
2022-10-10T20:34:27.806Z,3.50
2022-10-10T20:36:54.851Z,3.72
2022-10-10T20:39:21.690Z,4.63
2022-10-10T20:41:48.563Z,6.50
2022-10-10T20:44:15.647Z,6.47
2022-10-10T20:46:44.814Z,6.65
2022-10-10T20:49:14.816Z,8.30
2022-10-10T20:51:42.250Z,8.85
2022-10-10T20:54:10.923Z,6.88
2022-10-10T20:56:37.667Z,3.92
2022-10-10T20:59:04.396Z,4.50
2022-10-10T21:01:31.607Z,3.42
2022-10-10T21:03:58.976Z,7.30
2022-10-10T21:06:31.950Z,7.45
2022-10-10T21:09:05.118Z,4.32
2022-10-10T21:11:32.078Z,3.00
2022-10-10T21:14:00.069Z,5.80
2022-10-10T21:16:32.589Z,4.70
2022-10-10T21:21:29.493Z,4.65
2022-10-10T21:23:56.976Z,4.13
2022-10-10T21:26:26.186Z,5.68
2022-10-10T21:28:53.985Z,6.13
2022-10-10T21:31:26.968Z,10.70
2022-10-10T21:33:55.336Z,8.52
2022-10-10T21:36:26.723Z,5.22
2022-10-10T21:38:57.220Z,7.90
2022-10-10T21:41:24.846Z,5.50
2022-10-10T21:43:54.858Z,7.05
2022-10-10T21:46:36.544Z,5.85
2022-10-10T21:49:06.921Z,6.32
2022-10-10T21:51:37.298Z,2.83
2022-10-10T21:54:04.671Z,4.20
2022-10-10T21:56:31.446Z,6.15
2022-10-10T21:59:01.240Z,3.40
2022-10-10T22:01:29.165Z,4.53
2022-10-10T22:03:56.331Z,5.63
2022-10-10T22:06:25.033Z,4.88
2022-10-10T22:08:54.767Z,7.47
2022-10-10T22:11:23.949Z,5.78
2022-10-10T22:13:51.125Z,2.88
2022-10-10T22:16:18.686Z,2.58
2022-10-10T22:18:45.457Z,4.55
2022-10-10T22:21:15.587Z,6.45
2022-10-10T22:23:43.775Z,3.13
2022-10-10T22:26:12.706Z,4.80
2022-10-10T22:28:40.117Z,4.30
2022-10-10T22:31:12.100Z,2.33
2022-10-10T22:33:39.021Z,2.53
2022-10-10T22:36:06.986Z,2.17
2022-10-10T22:38:38.441Z,3.45
2022-10-10T22:41:05.214Z,3.60
2022-10-10T22:43:32.302Z,5.45
2022-10-10T22:45:59.410Z,5.43
2022-10-10T22:48:27.493Z,2.60
2022-10-10T22:51:02.666Z,2.60
2022-10-10T22:53:29.861Z,2.30
2022-10-10T22:55:56.816Z,4.50
2022-10-10T22:58:24.289Z,2.15
2022-10-10T23:00:51.330Z,8.50
2022-10-10T23:03:18.148Z,4.90
2022-10-10T23:05:45.680Z,3.28
2022-10-10T23:08:12.555Z,3.28
2022-10-10T23:10:39.274Z,5.40
2022-10-10T23:13:05.981Z,4.93
2022-10-10T23:15:32.688Z,2.35
2022-10-10T23:17:59.811Z,3.40
2022-10-10T23:20:26.611Z,1.75
2022-10-10T23:22:53.743Z,3.08
2022-10-10T23:25:20.702Z,3.80
2022-10-10T23:27:47.510Z,3.42
2022-10-10T23:30:14.371Z,2.78
2022-10-10T23:32:41.261Z,6.05
2022-10-10T23:35:08.761Z,4.40
2022-10-10T23:37:35.447Z,4.68
2022-10-10T23:40:02.447Z,2.35
2022-10-10T23:42:29.166Z,3.85
2022-10-10T23:44:55.837Z,2.80
2022-10-10T23:47:22.510Z,2.50
2022-10-10T23:49:49.186Z,2.80
2022-10-10T23:52:15.984Z,5.38
2022-10-10T23:54:42.668Z,3.55
2022-10-10T23:57:09.387Z,4.95
2022-10-10T23:59:36.041Z,4.18
